sensor_id;sensor_type;location;lat;lon;timestamp;P1;durP1;ratioP1;P2;durP2;ratioP2
35120;SDS011;21297;52.008;4.576;2023-06-14T00:00:21;8.85;;;3.35;;
35120;SDS011;21297;52.008;4.576;2023-06-14T00:03:07;11.45;;;3.55;;
35120;SDS011;21297;52.008;4.576;2023-06-14T00:05:55;7.10;;;3.03;;
35120;SDS011;21297;52.008;4.576;2023-06-14T00:08:40;12.55;;;3.63;;
35120;SDS011;21297;52.008;4.576;2023-06-14T00:11:26;10.55;;;3.90;;
35120;SDS011;21297;52.008;4.576;2023-06-14T00:14:12;8.50;;;3.67;;
35120;SDS011;21297;52.008;4.576;2023-06-14T00:16:58;9.18;;;3.58;;
35120;SDS011;21297;52.008;4.576;2023-06-14T00:19:43;8.88;;;3.83;;
35120;SDS011;21297;52.008;4.576;2023-06-14T00:22:29;8.52;;;3.03;;
35120;SDS011;21297;52.008;4.576;2023-06-14T00:25:16;10.10;;;3.63;;
35120;SDS011;21297;52.008;4.576;2023-06-14T00:28:01;9.50;;;3.70;;
35120;SDS011;21297;52.008;4.576;2023-06-14T00:30:47;11.07;;;3.50;;
35120;SDS011;21297;52.008;4.576;2023-06-14T00:33:33;15.07;;;4.22;;
35120;SDS011;21297;52.008;4.576;2023-06-14T00:36:19;9.15;;;3.33;;
35120;SDS011;21297;52.008;4.576;2023-06-14T00:39:04;7.57;;;3.42;;
35120;SDS011;21297;52.008;4.576;2023-06-14T00:41:54;9.70;;;3.70;;
35120;SDS011;21297;52.008;4.576;2023-06-14T00:44:39;8.85;;;3.85;;
35120;SDS011;21297;52.008;4.576;2023-06-14T00:47:25;7.38;;;3.78;;
35120;SDS011;21297;52.008;4.576;2023-06-14T00:50:12;11.48;;;4.00;;
35120;SDS011;21297;52.008;4.576;2023-06-14T00:52:59;11.13;;;3.80;;
35120;SDS011;21297;52.008;4.576;2023-06-14T00:55:49;12.80;;;4.03;;
35120;SDS011;21297;52.008;4.576;2023-06-14T00:58:35;8.68;;;3.70;;
35120;SDS011;21297;52.008;4.576;2023-06-14T01:01:20;10.05;;;3.60;;
35120;SDS011;21297;52.008;4.576;2023-06-14T01:04:06;9.15;;;3.80;;
35120;SDS011;21297;52.008;4.576;2023-06-14T01:07:02;13.05;;;4.18;;
35120;SDS011;21297;52.008;4.576;2023-06-14T01:13:21;10.38;;;3.70;;
35120;SDS011;21297;52.008;4.576;2023-06-14T01:16:12;10.75;;;3.30;;
35120;SDS011;21297;52.008;4.576;2023-06-14T01:18:59;10.27;;;4.10;;
35120;SDS011;21297;52.008;4.576;2023-06-14T01:21:45;9.70;;;3.45;;
35120;SDS011;21297;52.008;4.576;2023-06-14T01:24:30;7.93;;;3.30;;
35120;SDS011;21297;52.008;4.576;2023-06-14T01:27:18;14.65;;;3.42;;
35120;SDS011;21297;52.008;4.576;2023-06-14T01:30:04;10.57;;;3.75;;
35120;SDS011;21297;52.008;4.576;2023-06-14T01:32:51;12.40;;;3.67;;
35120;SDS011;21297;52.008;4.576;2023-06-14T01:35:39;10.15;;;3.83;;
35120;SDS011;21297;52.008;4.576;2023-06-14T01:38:25;7.75;;;3.38;;
35120;SDS011;21297;52.008;4.576;2023-06-14T01:41:12;11.15;;;3.50;;
35120;SDS011;21297;52.008;4.576;2023-06-14T01:44:00;11.57;;;3.63;;
35120;SDS011;21297;52.008;4.576;2023-06-14T01:46:47;10.10;;;3.45;;
35120;SDS011;21297;52.008;4.576;2023-06-14T01:49:34;9.63;;;3.40;;
35120;SDS011;21297;52.008;4.576;2023-06-14T01:52:20;9.23;;;3.75;;
35120;SDS011;21297;52.008;4.576;2023-06-14T01:55:07;11.50;;;3.80;;
35120;SDS011;21297;52.008;4.576;2023-06-14T01:57:54;14.25;;;3.83;;
35120;SDS011;21297;52.008;4.576;2023-06-14T02:00:40;9.10;;;3.95;;
35120;SDS011;21297;52.008;4.576;2023-06-14T02:03:25;8.63;;;3.00;;
35120;SDS011;21297;52.008;4.576;2023-06-14T02:06:11;9.35;;;3.45;;
35120;SDS011;21297;52.008;4.576;2023-06-14T02:08:59;8.57;;;3.70;;
35120;SDS011;21297;52.008;4.576;2023-06-14T02:11:46;8.32;;;3.80;;
35120;SDS011;21297;52.008;4.576;2023-06-14T02:14:32;11.85;;;4.45;;
35120;SDS011;21297;52.008;4.576;2023-06-14T02:17:18;11.35;;;4.03;;
35120;SDS011;21297;52.008;4.576;2023-06-14T02:20:04;10.45;;;4.40;;
35120;SDS011;21297;52.008;4.576;2023-06-14T02:22:51;14.50;;;4.25;;
35120;SDS011;21297;52.008;4.576;2023-06-14T02:25:36;12.75;;;4.07;;
35120;SDS011;21297;52.008;4.576;2023-06-14T02:28:22;11.80;;;4.88;;
35120;SDS011;21297;52.008;4.576;2023-06-14T02:31:08;16.17;;;4.90;;
35120;SDS011;21297;52.008;4.576;2023-06-14T02:33:54;9.30;;;4.40;;
35120;SDS011;21297;52.008;4.576;2023-06-14T02:36:39;8.95;;;4.72;;
35120;SDS011;21297;52.008;4.576;2023-06-14T02:39:26;15.27;;;4.55;;
35120;SDS011;21297;52.008;4.576;2023-06-14T02:42:12;12.27;;;5.38;;
35120;SDS011;21297;52.008;4.576;2023-06-14T02:44:58;10.85;;;4.35;;
35120;SDS011;21297;52.008;4.576;2023-06-14T02:47:43;10.88;;;4.78;;
35120;SDS011;21297;52.008;4.576;2023-06-14T02:50:31;12.73;;;4.75;;
35120;SDS011;21297;52.008;4.576;2023-06-14T02:53:17;12.77;;;5.47;;
35120;SDS011;21297;52.008;4.576;2023-06-14T02:56:03;14.90;;;5.47;;
35120;SDS011;21297;52.008;4.576;2023-06-14T02:58:49;14.02;;;5.35;;
35120;SDS011;21297;52.008;4.576;2023-06-14T03:01:35;9.25;;;5.10;;
35120;SDS011;21297;52.008;4.576;2023-06-14T03:04:26;14.10;;;4.90;;
35120;SDS011;21297;52.008;4.576;2023-06-14T03:07:12;12.00;;;4.75;;
35120;SDS011;21297;52.008;4.576;2023-06-14T03:09:58;11.65;;;4.68;;
35120;SDS011;21297;52.008;4.576;2023-06-14T03:12:44;15.60;;;4.82;;
35120;SDS011;21297;52.008;4.576;2023-06-14T03:15:30;9.07;;;4.45;;
35120;SDS011;21297;52.008;4.576;2023-06-14T03:18:16;9.13;;;4.05;;
35120;SDS011;21297;52.008;4.576;2023-06-14T03:21:02;12.30;;;4.43;;
35120;SDS011;21297;52.008;4.576;2023-06-14T03:23:48;12.73;;;4.18;;
35120;SDS011;21297;52.008;4.576;2023-06-14T03:26:34;11.38;;;5.00;;
35120;SDS011;21297;52.008;4.576;2023-06-14T03:29:22;10.93;;;4.03;;
35120;SDS011;21297;52.008;4.576;2023-06-14T03:32:08;12.13;;;4.00;;
35120;SDS011;21297;52.008;4.576;2023-06-14T03:34:54;15.45;;;4.45;;
35120;SDS011;21297;52.008;4.576;2023-06-14T03:37:40;8.27;;;3.63;;
35120;SDS011;21297;52.008;4.576;2023-06-14T03:40:26;7.65;;;3.58;;
35120;SDS011;21297;52.008;4.576;2023-06-14T03:43:12;10.90;;;4.18;;
35120;SDS011;21297;52.008;4.576;2023-06-14T03:45:58;8.73;;;3.88;;
35120;SDS011;21297;52.008;4.576;2023-06-14T03:48:44;9.82;;;3.67;;
35120;SDS011;21297;52.008;4.576;2023-06-14T03:51:30;8.13;;;3.70;;
35120;SDS011;21297;52.008;4.576;2023-06-14T03:54:16;9.57;;;4.10;;
35120;SDS011;21297;52.008;4.576;2023-06-14T03:57:02;11.90;;;3.97;;
35120;SDS011;21297;52.008;4.576;2023-06-14T03:59:48;8.93;;;4.28;;
35120;SDS011;21297;52.008;4.576;2023-06-14T04:02:33;12.55;;;4.38;;
35120;SDS011;21297;52.008;4.576;2023-06-14T04:05:19;13.40;;;3.72;;
35120;SDS011;21297;52.008;4.576;2023-06-14T04:08:05;11.07;;;3.55;;
35120;SDS011;21297;52.008;4.576;2023-06-14T04:10:54;11.95;;;3.70;;
35120;SDS011;21297;52.008;4.576;2023-06-14T04:13:40;12.63;;;3.80;;
35120;SDS011;21297;52.008;4.576;2023-06-14T04:16:25;14.30;;;3.85;;
35120;SDS011;21297;52.008;4.576;2023-06-14T04:19:11;11.68;;;3.60;;
35120;SDS011;21297;52.008;4.576;2023-06-14T04:21:57;11.15;;;3.35;;
35120;SDS011;21297;52.008;4.576;2023-06-14T04:24:46;9.68;;;3.28;;
35120;SDS011;21297;52.008;4.576;2023-06-14T04:27:32;13.50;;;3.72;;
35120;SDS011;21297;52.008;4.576;2023-06-14T04:30:11;13.93;;;3.83;;
35120;SDS011;21297;52.008;4.576;2023-06-14T04:32:38;10.65;;;3.33;;
35120;SDS011;21297;52.008;4.576;2023-06-14T04:35:06;10.45;;;3.72;;
35120;SDS011;21297;52.008;4.576;2023-06-14T04:37:33;15.63;;;3.75;;
35120;SDS011;21297;52.008;4.576;2023-06-14T04:39:58;8.38;;;3.70;;
35120;SDS011;21297;52.008;4.576;2023-06-14T04:42:24;12.30;;;3.90;;
35120;SDS011;21297;52.008;4.576;2023-06-14T04:44:55;11.52;;;3.38;;
35120;SDS011;21297;52.008;4.576;2023-06-14T04:47:21;14.00;;;3.40;;
35120;SDS011;21297;52.008;4.576;2023-06-14T04:50:05;9.35;;;3.40;;
35120;SDS011;21297;52.008;4.576;2023-06-14T04:52:52;11.77;;;3.88;;
35120;SDS011;21297;52.008;4.576;2023-06-14T04:55:38;11.65;;;4.60;;
35120;SDS011;21297;52.008;4.576;2023-06-14T04:58:24;11.50;;;3.17;;
35120;SDS011;21297;52.008;4.576;2023-06-14T05:01:09;8.13;;;3.25;;
35120;SDS011;21297;52.008;4.576;2023-06-14T05:03:55;8.07;;;3.40;;
35120;SDS011;21297;52.008;4.576;2023-06-14T05:06:42;14.00;;;3.70;;
35120;SDS011;21297;52.008;4.576;2023-06-14T05:09:30;10.55;;;4.53;;
35120;SDS011;21297;52.008;4.576;2023-06-14T05:12:16;13.27;;;3.25;;
35120;SDS011;21297;52.008;4.576;2023-06-14T05:15:03;13.32;;;3.65;;
35120;SDS011;21297;52.008;4.576;2023-06-14T05:17:50;9.52;;;3.30;;
35120;SDS011;21297;52.008;4.576;2023-06-14T05:20:40;13.00;;;3.70;;
35120;SDS011;21297;52.008;4.576;2023-06-14T05:23:29;13.27;;;3.53;;
35120;SDS011;21297;52.008;4.576;2023-06-14T05:26:18;11.80;;;3.15;;
35120;SDS011;21297;52.008;4.576;2023-06-14T05:29:04;9.52;;;3.70;;
35120;SDS011;21297;52.008;4.576;2023-06-14T05:31:50;15.25;;;3.47;;
35120;SDS011;21297;52.008;4.576;2023-06-14T05:34:35;15.00;;;3.55;;
35120;SDS011;21297;52.008;4.576;2023-06-14T05:37:21;15.60;;;3.70;;
35120;SDS011;21297;52.008;4.576;2023-06-14T05:40:07;13.98;;;4.07;;
35120;SDS011;21297;52.008;4.576;2023-06-14T05:42:54;14.57;;;3.90;;
35120;SDS011;21297;52.008;4.576;2023-06-14T05:45:40;20.25;;;4.18;;
35120;SDS011;21297;52.008;4.576;2023-06-14T05:48:25;14.85;;;3.63;;
35120;SDS011;21297;52.008;4.576;2023-06-14T05:51:11;18.77;;;3.83;;
35120;SDS011;21297;52.008;4.576;2023-06-14T05:53:57;12.00;;;4.13;;
35120;SDS011;21297;52.008;4.576;2023-06-14T05:56:43;9.45;;;3.30;;
35120;SDS011;21297;52.008;4.576;2023-06-14T05:59:29;12.68;;;3.67;;
35120;SDS011;21297;52.008;4.576;2023-06-14T06:02:15;15.13;;;3.92;;
35120;SDS011;21297;52.008;4.576;2023-06-14T06:05:01;8.15;;;3.35;;
35120;SDS011;21297;52.008;4.576;2023-06-14T06:07:47;8.52;;;3.55;;
35120;SDS011;21297;52.008;4.576;2023-06-14T06:10:33;15.45;;;3.53;;
35120;SDS011;21297;52.008;4.576;2023-06-14T06:13:19;19.73;;;3.70;;
35120;SDS011;21297;52.008;4.576;2023-06-14T06:16:05;10.38;;;3.72;;
35120;SDS011;21297;52.008;4.576;2023-06-14T06:18:52;8.77;;;3.33;;
35120;SDS011;21297;52.008;4.576;2023-06-14T06:21:37;10.05;;;3.65;;
35120;SDS011;21297;52.008;4.576;2023-06-14T06:24:23;9.20;;;3.42;;
35120;SDS011;21297;52.008;4.576;2023-06-14T06:27:09;20.13;;;3.83;;
35120;SDS011;21297;52.008;4.576;2023-06-14T06:29:55;10.55;;;3.88;;
35120;SDS011;21297;52.008;4.576;2023-06-14T06:32:41;11.57;;;4.25;;
35120;SDS011;21297;52.008;4.576;2023-06-14T06:35:27;11.38;;;3.65;;
35120;SDS011;21297;52.008;4.576;2023-06-14T06:38:12;13.20;;;4.20;;
35120;SDS011;21297;52.008;4.576;2023-06-14T06:40:58;10.77;;;3.42;;
35120;SDS011;21297;52.008;4.576;2023-06-14T06:43:45;10.95;;;3.35;;
35120;SDS011;21297;52.008;4.576;2023-06-14T06:46:31;10.20;;;3.15;;
35120;SDS011;21297;52.008;4.576;2023-06-14T06:49:20;10.07;;;3.58;;
35120;SDS011;21297;52.008;4.576;2023-06-14T06:52:06;9.20;;;3.70;;
35120;SDS011;21297;52.008;4.576;2023-06-14T06:54:53;13.77;;;3.25;;
35120;SDS011;21297;52.008;4.576;2023-06-14T06:57:41;11.38;;;3.53;;
35120;SDS011;21297;52.008;4.576;2023-06-14T07:00:27;9.02;;;3.55;;
35120;SDS011;21297;52.008;4.576;2023-06-14T07:03:14;9.98;;;3.40;;
35120;SDS011;21297;52.008;4.576;2023-06-14T07:06:00;30.15;;;5.13;;
35120;SDS011;21297;52.008;4.576;2023-06-14T07:08:45;15.60;;;3.42;;
35120;SDS011;21297;52.008;4.576;2023-06-14T07:11:34;13.80;;;3.28;;
35120;SDS011;21297;52.008;4.576;2023-06-14T07:14:20;8.90;;;3.00;;
35120;SDS011;21297;52.008;4.576;2023-06-14T07:17:08;10.70;;;3.35;;
35120;SDS011;21297;52.008;4.576;2023-06-14T07:19:55;12.95;;;3.75;;
35120;SDS011;21297;52.008;4.576;2023-06-14T07:22:43;10.10;;;3.40;;
35120;SDS011;21297;52.008;4.576;2023-06-14T07:25:29;9.57;;;3.33;;
35120;SDS011;21297;52.008;4.576;2023-06-14T07:28:20;21.70;;;4.25;;
35120;SDS011;21297;52.008;4.576;2023-06-14T07:31:06;15.23;;;3.28;;
35120;SDS011;21297;52.008;4.576;2023-06-14T07:33:54;11.35;;;3.63;;
35120;SDS011;21297;52.008;4.576;2023-06-14T07:36:39;10.88;;;3.67;;
35120;SDS011;21297;52.008;4.576;2023-06-14T07:39:27;19.92;;;4.13;;
35120;SDS011;21297;52.008;4.576;2023-06-14T07:42:14;11.25;;;3.25;;
35120;SDS011;21297;52.008;4.576;2023-06-14T07:45:00;12.38;;;3.40;;
35120;SDS011;21297;52.008;4.576;2023-06-14T07:47:46;8.82;;;3.03;;
35120;SDS011;21297;52.008;4.576;2023-06-14T07:50:31;8.32;;;2.80;;
35120;SDS011;21297;52.008;4.576;2023-06-14T07:53:18;77.50;;;6.40;;
35120;SDS011;21297;52.008;4.576;2023-06-14T07:56:03;10.75;;;3.10;;
35120;SDS011;21297;52.008;4.576;2023-06-14T07:58:49;11.48;;;3.90;;
35120;SDS011;21297;52.008;4.576;2023-06-14T08:01:35;11.00;;;3.53;;
35120;SDS011;21297;52.008;4.576;2023-06-14T08:04:21;28.33;;;4.20;;
35120;SDS011;21297;52.008;4.576;2023-06-14T08:07:07;16.35;;;3.33;;
35120;SDS011;21297;52.008;4.576;2023-06-14T08:09:53;7.13;;;3.35;;
35120;SDS011;21297;52.008;4.576;2023-06-14T08:12:38;10.23;;;3.08;;
35120;SDS011;21297;52.008;4.576;2023-06-14T08:15:24;11.75;;;3.38;;
35120;SDS011;21297;52.008;4.576;2023-06-14T08:18:10;15.32;;;3.30;;
35120;SDS011;21297;52.008;4.576;2023-06-14T08:20:56;18.02;;;3.75;;
35120;SDS011;21297;52.008;4.576;2023-06-14T08:23:43;9.57;;;3.30;;
35120;SDS011;21297;52.008;4.576;2023-06-14T08:26:29;9.68;;;3.00;;
35120;SDS011;21297;52.008;4.576;2023-06-14T08:29:15;10.05;;;3.10;;
35120;SDS011;21297;52.008;4.576;2023-06-14T08:32:01;9.35;;;3.70;;
35120;SDS011;21297;52.008;4.576;2023-06-14T08:34:47;11.90;;;3.42;;
35120;SDS011;21297;52.008;4.576;2023-06-14T08:37:32;12.05;;;2.80;;
35120;SDS011;21297;52.008;4.576;2023-06-14T08:40:22;11.18;;;3.10;;
35120;SDS011;21297;52.008;4.576;2023-06-14T08:43:11;10.50;;;3.05;;
35120;SDS011;21297;52.008;4.576;2023-06-14T08:46:00;12.70;;;2.72;;
35120;SDS011;21297;52.008;4.576;2023-06-14T08:48:49;14.63;;;3.47;;
35120;SDS011;21297;52.008;4.576;2023-06-14T08:51:37;11.95;;;2.88;;
35120;SDS011;21297;52.008;4.576;2023-06-14T08:54:28;6.60;;;2.78;;
35120;SDS011;21297;52.008;4.576;2023-06-14T08:57:21;8.90;;;2.92;;
35120;SDS011;21297;52.008;4.576;2023-06-14T09:00:07;11.68;;;2.63;;
35120;SDS011;21297;52.008;4.576;2023-06-14T09:02:57;15.77;;;3.08;;
35120;SDS011;21297;52.008;4.576;2023-06-14T09:05:48;8.52;;;2.90;;
35120;SDS011;21297;52.008;4.576;2023-06-14T09:08:35;10.00;;;2.80;;
35120;SDS011;21297;52.008;4.576;2023-06-14T09:11:21;7.60;;;2.92;;
35120;SDS011;21297;52.008;4.576;2023-06-14T09:14:07;9.65;;;2.80;;
35120;SDS011;21297;52.008;4.576;2023-06-14T09:16:53;11.98;;;2.97;;
35120;SDS011;21297;52.008;4.576;2023-06-14T09:19:39;6.38;;;2.30;;
35120;SDS011;21297;52.008;4.576;2023-06-14T09:22:29;8.45;;;2.63;;
35120;SDS011;21297;52.008;4.576;2023-06-14T09:25:16;12.73;;;2.72;;
35120;SDS011;21297;52.008;4.576;2023-06-14T09:28:01;9.07;;;2.20;;
35120;SDS011;21297;52.008;4.576;2023-06-14T09:30:47;11.77;;;2.40;;
35120;SDS011;21297;52.008;4.576;2023-06-14T09:33:36;5.57;;;2.28;;
35120;SDS011;21297;52.008;4.576;2023-06-14T09:36:25;9.77;;;2.58;;
35120;SDS011;21297;52.008;4.576;2023-06-14T09:39:11;8.27;;;2.93;;
35120;SDS011;21297;52.008;4.576;2023-06-14T09:42:08;8.70;;;2.10;;
35120;SDS011;21297;52.008;4.576;2023-06-14T09:45:03;7.50;;;2.58;;
35120;SDS011;21297;52.008;4.576;2023-06-14T09:47:52;6.68;;;2.13;;
35120;SDS011;21297;52.008;4.576;2023-06-14T09:50:39;13.65;;;2.25;;
35120;SDS011;21297;52.008;4.576;2023-06-14T09:53:25;6.13;;;2.42;;
35120;SDS011;21297;52.008;4.576;2023-06-14T09:56:17;7.47;;;2.30;;
35120;SDS011;21297;52.008;4.576;2023-06-14T09:59:26;8.05;;;2.10;;
35120;SDS011;21297;52.008;4.576;2023-06-14T10:05:25;10.85;;;2.30;;
35120;SDS011;21297;52.008;4.576;2023-06-14T10:08:15;7.78;;;2.08;;
35120;SDS011;21297;52.008;4.576;2023-06-14T10:11:12;6.97;;;2.15;;
35120;SDS011;21297;52.008;4.576;2023-06-14T10:14:04;7.70;;;2.08;;
35120;SDS011;21297;52.008;4.576;2023-06-14T10:23:16;7.85;;;2.08;;
35120;SDS011;21297;52.008;4.576;2023-06-14T10:26:08;6.00;;;2.17;;
35120;SDS011;21297;52.008;4.576;2023-06-14T10:29:11;8.20;;;2.28;;
35120;SDS011;21297;52.008;4.576;2023-06-14T10:32:00;8.43;;;2.13;;
35120;SDS011;21297;52.008;4.576;2023-06-14T10:34:53;4.68;;;1.90;;
35120;SDS011;21297;52.008;4.576;2023-06-14T10:37:40;4.72;;;1.60;;
35120;SDS011;21297;52.008;4.576;2023-06-14T10:40:34;6.63;;;2.10;;
35120;SDS011;21297;52.008;4.576;2023-06-14T10:43:26;8.32;;;1.80;;
35120;SDS011;21297;52.008;4.576;2023-06-14T10:49:02;8.93;;;1.83;;
35120;SDS011;21297;52.008;4.576;2023-06-14T10:51:49;5.28;;;1.75;;
35120;SDS011;21297;52.008;4.576;2023-06-14T10:54:37;5.20;;;1.90;;
35120;SDS011;21297;52.008;4.576;2023-06-14T10:57:31;8.23;;;1.90;;
35120;SDS011;21297;52.008;4.576;2023-06-14T11:00:26;5.93;;;1.83;;
35120;SDS011;21297;52.008;4.576;2023-06-14T11:06:12;9.90;;;2.00;;
35120;SDS011;21297;52.008;4.576;2023-06-14T11:12:10;4.07;;;1.70;;
35120;SDS011;21297;52.008;4.576;2023-06-14T11:14:57;8.32;;;1.60;;
35120;SDS011;21297;52.008;4.576;2023-06-14T11:17:52;5.47;;;1.60;;
35120;SDS011;21297;52.008;4.576;2023-06-14T11:20:41;13.40;;;2.10;;
35120;SDS011;21297;52.008;4.576;2023-06-14T11:23:27;4.80;;;1.63;;
35120;SDS011;21297;52.008;4.576;2023-06-14T11:26:15;7.45;;;1.60;;
35120;SDS011;21297;52.008;4.576;2023-06-14T11:29:09;8.73;;;1.90;;
35120;SDS011;21297;52.008;4.576;2023-06-14T11:32:05;3.85;;;1.67;;
35120;SDS011;21297;52.008;4.576;2023-06-14T11:34:58;6.72;;;1.67;;
35120;SDS011;21297;52.008;4.576;2023-06-14T11:37:44;5.35;;;1.38;;
35120;SDS011;21297;52.008;4.576;2023-06-14T11:40:34;6.55;;;1.80;;
35120;SDS011;21297;52.008;4.576;2023-06-14T11:43:25;5.97;;;1.52;;
35120;SDS011;21297;52.008;4.576;2023-06-14T11:46:12;3.53;;;1.27;;
35120;SDS011;21297;52.008;4.576;2023-06-14T11:49:07;6.35;;;1.52;;
35120;SDS011;21297;52.008;4.576;2023-06-14T11:51:57;4.50;;;1.70;;
35120;SDS011;21297;52.008;4.576;2023-06-14T11:54:47;6.47;;;1.38;;
35120;SDS011;21297;52.008;4.576;2023-06-14T11:57:34;4.43;;;1.50;;
35120;SDS011;21297;52.008;4.576;2023-06-14T12:00:39;6.93;;;1.67;;
35120;SDS011;21297;52.008;4.576;2023-06-14T12:03:28;8.35;;;2.17;;
35120;SDS011;21297;52.008;4.576;2023-06-14T12:06:14;4.00;;;1.63;;
35120;SDS011;21297;52.008;4.576;2023-06-14T12:09:00;6.72;;;1.75;;
35120;SDS011;21297;52.008;4.576;2023-06-14T12:12:01;5.38;;;1.50;;
35120;SDS011;21297;52.008;4.576;2023-06-14T12:14:49;6.22;;;1.60;;
35120;SDS011;21297;52.008;4.576;2023-06-14T12:17:42;5.72;;;1.52;;
35120;SDS011;21297;52.008;4.576;2023-06-14T12:20:29;5.63;;;1.65;;
35120;SDS011;21297;52.008;4.576;2023-06-14T12:23:17;3.72;;;1.33;;
35120;SDS011;21297;52.008;4.576;2023-06-14T12:26:15;3.70;;;1.55;;
35120;SDS011;21297;52.008;4.576;2023-06-14T12:29:04;5.80;;;1.88;;
35120;SDS011;21297;52.008;4.576;2023-06-14T12:31:53;9.30;;;2.00;;
35120;SDS011;21297;52.008;4.576;2023-06-14T12:34:47;4.80;;;1.55;;
35120;SDS011;21297;52.008;4.576;2023-06-14T12:37:34;8.05;;;1.90;;
35120;SDS011;21297;52.008;4.576;2023-06-14T12:40:20;4.07;;;1.50;;
35120;SDS011;21297;52.008;4.576;2023-06-14T12:43:06;3.53;;;1.50;;
35120;SDS011;21297;52.008;4.576;2023-06-14T12:45:52;5.07;;;1.70;;
35120;SDS011;21297;52.008;4.576;2023-06-14T12:48:41;5.78;;;1.45;;
35120;SDS011;21297;52.008;4.576;2023-06-14T12:51:26;5.65;;;1.70;;
35120;SDS011;21297;52.008;4.576;2023-06-14T12:54:15;12.32;;;1.98;;
35120;SDS011;21297;52.008;4.576;2023-06-14T12:57:10;5.13;;;1.50;;
35120;SDS011;21297;52.008;4.576;2023-06-14T13:00:13;8.77;;;1.40;;
35120;SDS011;21297;52.008;4.576;2023-06-14T13:03:02;9.35;;;1.52;;
35120;SDS011;21297;52.008;4.576;2023-06-14T13:05:53;7.10;;;1.50;;
35120;SDS011;21297;52.008;4.576;2023-06-14T13:08:38;6.72;;;1.70;;
35120;SDS011;21297;52.008;4.576;2023-06-14T13:11:27;8.80;;;1.38;;
35120;SDS011;21297;52.008;4.576;2023-06-14T13:18:00;4.72;;;1.80;;
35120;SDS011;21297;52.008;4.576;2023-06-14T13:21:08;4.22;;;1.40;;
35120;SDS011;21297;52.008;4.576;2023-06-14T13:27:44;7.15;;;1.90;;
35120;SDS011;21297;52.008;4.576;2023-06-14T13:37:55;9.02;;;1.60;;
35120;SDS011;21297;52.008;4.576;2023-06-14T13:40:59;5.80;;;1.75;;
35120;SDS011;21297;52.008;4.576;2023-06-14T13:44:11;3.70;;;1.40;;
35120;SDS011;21297;52.008;4.576;2023-06-14T13:57:27;3.67;;;1.50;;
35120;SDS011;21297;52.008;4.576;2023-06-14T14:15:23;6.75;;;1.60;;
35120;SDS011;21297;52.008;4.576;2023-06-14T14:18:12;7.70;;;1.70;;
35120;SDS011;21297;52.008;4.576;2023-06-14T14:25:16;2.78;;;1.40;;
35120;SDS011;21297;52.008;4.576;2023-06-14T14:28:27;6.35;;;1.60;;
35120;SDS011;21297;52.008;4.576;2023-06-14T14:31:46;5.07;;;1.42;;
35120;SDS011;21297;52.008;4.576;2023-06-14T14:35:02;6.63;;;1.48;;
35120;SDS011;21297;52.008;4.576;2023-06-14T14:45:27;7.05;;;1.27;;
35120;SDS011;21297;52.008;4.576;2023-06-14T14:52:44;3.63;;;1.58;;
35120;SDS011;21297;52.008;4.576;2023-06-14T14:58:36;3.45;;;1.50;;
35120;SDS011;21297;52.008;4.576;2023-06-14T15:01:50;19.45;;;1.75;;
35120;SDS011;21297;52.008;4.576;2023-06-14T15:12:18;4.25;;;1.58;;
35120;SDS011;21297;52.008;4.576;2023-06-14T15:15:33;7.57;;;1.50;;
35120;SDS011;21297;52.008;4.576;2023-06-14T15:18:23;3.70;;;1.63;;
35120;SDS011;21297;52.008;4.576;2023-06-14T15:21:09;6.55;;;1.63;;
35120;SDS011;21297;52.008;4.576;2023-06-14T15:23:57;5.75;;;1.63;;
35120;SDS011;21297;52.008;4.576;2023-06-14T15:26:55;6.43;;;1.58;;
35120;SDS011;21297;52.008;4.576;2023-06-14T15:29:57;8.30;;;1.63;;
35120;SDS011;21297;52.008;4.576;2023-06-14T15:32:45;4.65;;;1.55;;
35120;SDS011;21297;52.008;4.576;2023-06-14T15:35:43;6.97;;;1.83;;
35120;SDS011;21297;52.008;4.576;2023-06-14T15:38:28;6.03;;;1.60;;
35120;SDS011;21297;52.008;4.576;2023-06-14T15:41:15;9.82;;;1.80;;
35120;SDS011;21297;52.008;4.576;2023-06-14T15:44:00;5.32;;;1.75;;
35120;SDS011;21297;52.008;4.576;2023-06-14T15:46:48;8.23;;;3.50;;
35120;SDS011;21297;52.008;4.576;2023-06-14T15:49:40;5.38;;;2.10;;
35120;SDS011;21297;52.008;4.576;2023-06-14T15:52:26;6.38;;;1.60;;
35120;SDS011;21297;52.008;4.576;2023-06-14T15:55:12;4.53;;;1.90;;
35120;SDS011;21297;52.008;4.576;2023-06-14T15:57:57;7.85;;;2.13;;
35120;SDS011;21297;52.008;4.576;2023-06-14T16:00:46;8.02;;;2.42;;
35120;SDS011;21297;52.008;4.576;2023-06-14T16:03:37;4.45;;;1.30;;
35120;SDS011;21297;52.008;4.576;2023-06-14T16:06:25;3.22;;;1.50;;
35120;SDS011;21297;52.008;4.576;2023-06-14T16:09:11;11.13;;;1.67;;
35120;SDS011;21297;52.008;4.576;2023-06-14T16:12:09;6.50;;;1.58;;
35120;SDS011;21297;52.008;4.576;2023-06-14T16:14:55;5.15;;;1.80;;
35120;SDS011;21297;52.008;4.576;2023-06-14T16:17:41;3.40;;;1.70;;
35120;SDS011;21297;52.008;4.576;2023-06-14T16:20:28;3.60;;;1.40;;
35120;SDS011;21297;52.008;4.576;2023-06-14T16:23:13;4.28;;;1.60;;
35120;SDS011;21297;52.008;4.576;2023-06-14T16:26:02;8.52;;;1.48;;
35120;SDS011;21297;52.008;4.576;2023-06-14T16:28:48;6.13;;;1.65;;
35120;SDS011;21297;52.008;4.576;2023-06-14T16:31:34;9.05;;;1.60;;
35120;SDS011;21297;52.008;4.576;2023-06-14T16:34:19;5.85;;;1.70;;
35120;SDS011;21297;52.008;4.576;2023-06-14T16:37:05;7.65;;;1.65;;
35120;SDS011;21297;52.008;4.576;2023-06-14T16:39:53;15.65;;;1.90;;
35120;SDS011;21297;52.008;4.576;2023-06-14T16:42:40;5.57;;;1.45;;
35120;SDS011;21297;52.008;4.576;2023-06-14T16:45:26;3.90;;;1.80;;
35120;SDS011;21297;52.008;4.576;2023-06-14T16:48:12;6.65;;;1.58;;
35120;SDS011;21297;52.008;4.576;2023-06-14T16:50:57;7.32;;;1.65;;
35120;SDS011;21297;52.008;4.576;2023-06-14T16:53:23;7.18;;;1.52;;
35120;SDS011;21297;52.008;4.576;2023-06-14T16:55:50;7.63;;;1.60;;
35120;SDS011;21297;52.008;4.576;2023-06-14T16:58:16;7.53;;;1.45;;
35120;SDS011;21297;52.008;4.576;2023-06-14T17:00:41;10.77;;;1.60;;
35120;SDS011;21297;52.008;4.576;2023-06-14T17:03:07;8.50;;;1.70;;
35120;SDS011;21297;52.008;4.576;2023-06-14T17:05:35;5.43;;;1.40;;
35120;SDS011;21297;52.008;4.576;2023-06-14T17:08:00;5.50;;;1.50;;
35120;SDS011;21297;52.008;4.576;2023-06-14T17:10:27;3.63;;;1.65;;
35120;SDS011;21297;52.008;4.576;2023-06-14T17:12:55;8.02;;;1.58;;
35120;SDS011;21297;52.008;4.576;2023-06-14T17:15:20;4.50;;;1.50;;
35120;SDS011;21297;52.008;4.576;2023-06-14T17:17:45;8.20;;;1.38;;
35120;SDS011;21297;52.008;4.576;2023-06-14T17:20:11;4.38;;;1.30;;
35120;SDS011;21297;52.008;4.576;2023-06-14T17:22:40;3.65;;;1.20;;
35120;SDS011;21297;52.008;4.576;2023-06-14T17:25:09;4.07;;;1.40;;
35120;SDS011;21297;52.008;4.576;2023-06-14T17:27:34;7.38;;;1.30;;
35120;SDS011;21297;52.008;4.576;2023-06-14T17:29:59;4.75;;;1.33;;
35120;SDS011;21297;52.008;4.576;2023-06-14T17:32:25;2.58;;;1.10;;
35120;SDS011;21297;52.008;4.576;2023-06-14T17:34:51;6.68;;;1.30;;
35120;SDS011;21297;52.008;4.576;2023-06-14T17:37:16;7.30;;;1.20;;
35120;SDS011;21297;52.008;4.576;2023-06-14T17:39:41;7.95;;;1.60;;
35120;SDS011;21297;52.008;4.576;2023-06-14T17:42:07;4.97;;;1.40;;
35120;SDS011;21297;52.008;4.576;2023-06-14T17:44:33;4.15;;;1.35;;
35120;SDS011;21297;52.008;4.576;2023-06-14T17:47:17;8.55;;;1.40;;
35120;SDS011;21297;52.008;4.576;2023-06-14T17:50:03;6.55;;;1.23;;
35120;SDS011;21297;52.008;4.576;2023-06-14T17:52:50;4.47;;;1.30;;
35120;SDS011;21297;52.008;4.576;2023-06-14T17:55:36;3.70;;;1.38;;
35120;SDS011;21297;52.008;4.576;2023-06-14T17:58:22;3.67;;;1.25;;
35120;SDS011;21297;52.008;4.576;2023-06-14T18:01:08;4.43;;;1.55;;
35120;SDS011;21297;52.008;4.576;2023-06-14T18:03:53;6.82;;;1.30;;
35120;SDS011;21297;52.008;4.576;2023-06-14T18:06:39;5.07;;;1.13;;